»·PEaware :: AAL280 KCPR-KDEN

AAL280 :: KCPR-KDEN

FLIGHT INFORMATION

Flight Status: Arrived
Operator:
American Airlines
More flights by this operator :: More flights under this callsign
Pilot: Ion I. (24133)
Aircraft: BOEING 737-800
(B738)
More flights by this aircraft type
Origin: KCPR Natrona Co Intl
United States
Destination: KDEN Denver Intl
United States
More flights between these airports :: More routes between these airports
Route: ALCOS6 MBW HIPEE FLATI2
File this flight plan on PilotEdge
Remarks:
Altitude:
(Current/Filed)
31,000ft
Speed:
(Current/Filed)
460kts
Departed: 13-Mar-21 05:29 PM
Arrived: 13-Mar-21 06:21 PM
Distance/Time
Traveled:
200nm/0:51
Distance/Time
To Go:
Arrived

Flight Plot

Page will automatically refresh every two minutes.

Flight plan parsing failed; only flown route is shown


Map Options




Map Legend


Flown Route
Filed Route
Departure Airport
Arrival Airport
Navaid (VOR, NDB)
Fix

Horizontal Profiles

Position Reports

Time Latitude Longitude Heading Altitude Ground
Speed
13-Mar-21 17:00 42.900510 -106.461570 133 5355ft 0kts
13-Mar-21 17:02 42.900510 -106.461570 133 5355ft 0kts
13-Mar-21 17:03 42.900510 -106.461570 133 5355ft 0kts
13-Mar-21 17:03 42.900510 -106.461570 133 5355ft 0kts
13-Mar-21 17:04 42.900510 -106.461570 133 5355ft 0kts
13-Mar-21 17:06 42.900510 -106.461570 133 5355ft 0kts
13-Mar-21 17:06 42.900510 -106.461570 133 5355ft 0kts
13-Mar-21 17:07 42.900510 -106.461570 133 5355ft 0kts
13-Mar-21 17:08 42.900510 -106.461570 133 5355ft 0kts
13-Mar-21 17:09 42.900510 -106.461570 133 5355ft 0kts
13-Mar-21 17:10 42.900510 -106.461570 133 5355ft 0kts
13-Mar-21 17:11 42.900510 -106.461570 133 5355ft 0kts
13-Mar-21 17:12 42.900510 -106.461570 133 5355ft 0kts
13-Mar-21 17:13 42.900510 -106.461570 133 5355ft 0kts
13-Mar-21 17:14 42.900510 -106.461570 133 5355ft 0kts
13-Mar-21 17:15 42.900510 -106.461570 133 5355ft 0kts
13-Mar-21 17:16 42.900510 -106.461570 133 5355ft 0kts
13-Mar-21 17:17 42.900510 -106.461570 133 5355ft 0kts
13-Mar-21 17:18 42.900510 -106.461570 133 5355ft 0kts
13-Mar-21 17:19 42.901016 -106.461608 222 5355ft 1kts
13-Mar-21 17:20 42.901083 -106.461524 222 5355ft 0kts
13-Mar-21 17:21 42.901083 -106.461524 222 5355ft 0kts
13-Mar-21 17:22 42.901083 -106.461524 222 5355ft 0kts
13-Mar-21 17:23 42.900861 -106.461884 255 5355ft 0kts
13-Mar-21 17:24 42.900401 -106.463216 223 5355ft 4kts
13-Mar-21 17:25 42.898280 -106.465958 223 5355ft 8kts
13-Mar-21 17:26 42.895157 -106.470055 224 5355ft 16kts
13-Mar-21 17:27 42.893003 -106.474130 315 5355ft 5kts
13-Mar-21 17:28 42.895956 -106.471673 36 5355ft 78kts
13-Mar-21 17:29 42.933473 -106.430518 14 6846ft 209kts
13-Mar-21 17:30 42.959416 -106.479870 244 10183ft 178kts
13-Mar-21 17:31 42.910221 -106.507453 177 11662ft 240kts
13-Mar-21 17:32 42.838299 -106.530753 207 13797ft 309kts
13-Mar-21 17:33 42.753677 -106.552684 161 15755ft 345kts
13-Mar-21 17:34 42.660692 -106.496884 151 17924ft 376kts
13-Mar-21 17:35 42.564038 -106.437924 151 20642ft 386kts
13-Mar-21 17:36 42.464812 -106.377496 151 23025ft 395kts
13-Mar-21 17:37 42.363692 -106.315745 152 25235ft 401kts
13-Mar-21 17:38 42.261955 -106.254126 153 27369ft 400kts
13-Mar-21 17:39 42.161351 -106.193347 154 29826ft 387kts
13-Mar-21 17:40 42.063566 -106.134185 155 31052ft 394kts
13-Mar-21 17:41 41.961529 -106.073282 156 31044ft 400kts
13-Mar-21 17:42 41.858471 -106.015576 165 31032ft 402kts
13-Mar-21 17:43 41.746433 -106.027444 187 31019ft 405kts
13-Mar-21 17:44 41.635700 -106.056601 186 31023ft 406kts
13-Mar-21 17:45 41.524921 -106.084499 186 31006ft 409kts
13-Mar-21 17:46 41.413677 -106.112329 186 31006ft 405kts
13-Mar-21 17:47 41.301848 -106.140048 186 31003ft 412kts
13-Mar-21 17:48 41.189597 -106.167794 186 30983ft 407kts
13-Mar-21 17:49 41.076796 -106.195731 186 30972ft 415kts
13-Mar-21 17:50 40.963277 -106.223693 186 30956ft 414kts
13-Mar-21 17:51 40.851666 -106.214528 145 30946ft 410kts
13-Mar-21 17:52 40.788985 -106.093291 117 30942ft 405kts
13-Mar-21 17:53 40.741286 -105.958754 118 30214ft 400kts
13-Mar-21 17:54 40.694248 -105.827232 118 29213ft 393kts
13-Mar-21 17:55 40.647760 -105.698470 118 28213ft 386kts
13-Mar-21 17:56 40.602781 -105.573651 118 26254ft 370kts
13-Mar-21 17:57 40.558929 -105.453296 117 24219ft 360kts
13-Mar-21 17:58 40.516263 -105.335917 118 22192ft 351kts
13-Mar-21 17:59 40.475132 -105.223958 119 21185ft 318kts
13-Mar-21 18:00 40.420771 -105.144444 144 20424ft 288kts
13-Mar-21 18:01 40.356095 -105.084170 146 19320ft 284kts
13-Mar-21 18:02 40.295718 -105.028303 146 18294ft 279kts
13-Mar-21 18:03 40.232698 -104.970103 146 17209ft 276kts
13-Mar-21 18:04 40.171491 -104.917621 154 16241ft 274kts
13-Mar-21 18:05 40.101643 -104.878411 156 15247ft 272kts
13-Mar-21 18:06 40.032017 -104.839155 154 14246ft 271kts
13-Mar-21 18:07 39.960784 -104.805174 171 13255ft 278kts
13-Mar-21 18:08 39.884489 -104.806294 176 12248ft 269kts
13-Mar-21 18:09 39.810753 -104.808371 176 11290ft 262kts
13-Mar-21 18:10 39.740463 -104.809999 175 11013ft 239kts
13-Mar-21 18:11 39.677085 -104.811491 175 10361ft 221kts
13-Mar-21 18:12 39.614156 -104.813021 174 9034ft 225kts
13-Mar-21 18:13 39.572855 -104.773826 89 9015ft 214kts
13-Mar-21 18:14 39.577828 -104.697295 71 8980ft 214kts
13-Mar-21 18:15 39.634252 -104.666864 17 9004ft 234kts
13-Mar-21 18:16 39.698098 -104.661926 5 7950ft 221kts
13-Mar-21 18:17 39.753770 -104.661394 3 6893ft 171kts
13-Mar-21 18:18 39.796536 -104.660901 0 6070ft 148kts
13-Mar-21 18:19 39.835828 -104.660450 0 5439ft 120kts
13-Mar-21 18:20 39.849311 -104.661704 328 5439ft 22kts
13-Mar-21 18:21 39.852224 -104.662396 0 5439ft 5kts
13-Mar-21 18:22 39.856079 -104.662356 0 5439ft 15kts
13-Mar-21 18:23 39.856328 -104.662354 0 5439ft 0kts
13-Mar-21 18:24 39.856744 -104.662672 297 5439ft 9kts
13-Mar-21 18:25 39.854464 -104.665831 177 5439ft 20kts
13-Mar-21 18:26 39.855572 -104.665877 342 5439ft 12kts
13-Mar-21 18:27 39.855231 -104.670983 269 5439ft 5kts
13-Mar-21 18:28 39.854504 -104.671220 181 5439ft 0kts
13-Mar-21 18:29 39.854504 -104.671220 181 5439ft 0kts
13-Mar-21 18:30 39.854504 -104.671220 181 5439ft 0kts
13-Mar-21 18:31 39.854504 -104.671220 181 5439ft 0kts
13-Mar-21 18:32 39.854504 -104.671220 181 5439ft 0kts
13-Mar-21 18:33 39.854504 -104.671220 181 5439ft 0kts
13-Mar-21 18:34 39.854504 -104.671220 181 5439ft 0kts

Navigation Log

Ident Type
Flight plan parsing failed, navigation log unavailable